createdAt,value
2019-01-17T00:00:44.972Z,83.26
2019-01-17T00:03:36.052Z,83.15
2019-01-17T00:06:23.394Z,83.16
2019-01-17T00:09:14.537Z,83.33
2019-01-17T00:12:08.757Z,83.36
2019-01-17T00:15:02.949Z,83.39
2019-01-17T00:18:00.296Z,83.44
2019-01-17T00:20:47.287Z,83.72
2019-01-17T00:23:44.885Z,82.92
2019-01-17T00:26:31.764Z,81.85
2019-01-17T00:29:20.270Z,81.91
2019-01-17T00:32:08.353Z,82.25
2019-01-17T00:34:44.346Z,82.34
2019-01-17T00:37:36.420Z,82.37
2019-01-17T00:40:27.930Z,81.36
2019-01-17T00:43:18.869Z,81.30
2019-01-17T00:46:06.998Z,81.17
2019-01-17T00:48:55.116Z,81.53
2019-01-17T00:51:41.919Z,82.45
2019-01-17T00:54:32.813Z,81.54
2019-01-17T00:57:20.252Z,81.41
2019-01-17T01:00:18.021Z,81.30
2019-01-17T01:03:06.537Z,81.72
2019-01-17T01:05:53.581Z,81.77
2019-01-17T01:08:40.362Z,81.88
2019-01-17T01:11:21.741Z,81.71
2019-01-17T01:14:08.418Z,81.84
2019-01-17T01:17:04.552Z,82.05
2019-01-17T01:19:51.087Z,81.94
2019-01-17T01:22:51.175Z,82.11
2019-01-17T01:25:36.627Z,82.27
2019-01-17T01:28:23.169Z,82.33
2019-01-17T01:31:09.496Z,82.42
2019-01-17T01:33:49.710Z,82.61
2019-01-17T01:36:36.586Z,82.51
2019-01-17T01:39:36.607Z,82.59
2019-01-17T01:42:30.434Z,82.60
2019-01-17T01:45:18.316Z,82.72
2019-01-17T01:48:03.074Z,82.58
2019-01-17T01:50:50.604Z,82.51
2019-01-17T01:53:19.749Z,82.48
2019-01-17T01:55:48.981Z,82.18
2019-01-17T01:58:18.212Z,82.24
2019-01-17T02:00:47.381Z,82.20
2019-01-17T02:03:16.501Z,82.27
2019-01-17T02:05:45.666Z,82.12
2019-01-17T02:08:14.797Z,82.17
2019-01-17T02:10:44.019Z,82.15
2019-01-17T02:13:13.181Z,82.04
2019-01-17T02:15:42.442Z,81.76
2019-01-17T02:18:11.672Z,81.67
2019-01-17T02:20:41.354Z,81.03
2019-01-17T02:23:10.549Z,80.66
2019-01-17T02:25:39.704Z,80.65
2019-01-17T02:28:08.838Z,80.43
2019-01-17T02:30:38.012Z,80.23
2019-01-17T02:33:07.258Z,80.23
2019-01-17T02:35:36.532Z,80.15
2019-01-17T02:38:05.701Z,80.31
2019-01-17T02:40:34.911Z,80.14
2019-01-17T02:43:04.081Z,80.30
2019-01-17T02:45:33.313Z,80.53
2019-01-17T02:48:02.449Z,80.41
2019-01-17T02:50:32.752Z,80.45
2019-01-17T02:53:01.907Z,80.63
2019-01-17T02:55:31.059Z,80.67
2019-01-17T02:58:00.279Z,80.72
2019-01-17T03:00:29.491Z,80.44
2019-01-17T03:02:58.660Z,80.48
2019-01-17T03:05:27.825Z,80.53
2019-01-17T03:07:56.952Z,80.40
2019-01-17T03:10:26.444Z,80.31
2019-01-17T03:12:55.573Z,80.46
2019-01-17T03:15:24.693Z,80.43
2019-01-17T03:17:53.876Z,80.54
2019-01-17T03:20:23.333Z,80.20
2019-01-17T03:22:52.601Z,80.11
2019-01-17T03:25:21.787Z,80.17
2019-01-17T03:27:50.941Z,80.35
2019-01-17T03:30:23.005Z,80.63
2019-01-17T03:32:52.138Z,80.65
2019-01-17T03:35:21.293Z,80.64
2019-01-17T03:37:50.552Z,80.65
2019-01-17T03:40:21.865Z,80.75
2019-01-17T03:42:51.059Z,80.74
2019-01-17T03:45:20.197Z,80.76
2019-01-17T03:47:49.323Z,80.95
2019-01-17T03:50:21.268Z,81.01
2019-01-17T03:52:50.438Z,81.12
2019-01-17T03:55:22.441Z,81.24
2019-01-17T03:57:51.591Z,81.38
2019-01-17T04:00:22.698Z,81.24
2019-01-17T04:02:51.825Z,81.26
2019-01-17T04:05:20.941Z,81.31
2019-01-17T04:07:50.060Z,81.37
2019-01-17T04:10:19.290Z,81.52
2019-01-17T04:12:48.390Z,81.59
2019-01-17T04:15:17.620Z,81.66
2019-01-17T04:17:46.797Z,81.73
2019-01-17T04:20:17.784Z,81.93
2019-01-17T04:22:47.140Z,81.88
2019-01-17T04:25:16.555Z,81.82
2019-01-17T04:27:45.703Z,81.96
2019-01-17T04:30:19.105Z,81.84
2019-01-17T04:32:48.459Z,81.81
2019-01-17T04:35:17.627Z,81.75
2019-01-17T04:37:46.778Z,81.77
2019-01-17T04:40:20.593Z,81.68
2019-01-17T04:42:50.121Z,81.53
2019-01-17T04:45:19.361Z,81.52
2019-01-17T04:47:48.488Z,81.49
2019-01-17T04:50:20.060Z,81.49
2019-01-17T04:52:49.389Z,81.43
2019-01-17T04:55:18.591Z,81.43
2019-01-17T04:57:47.734Z,81.55
2019-01-17T05:00:19.149Z,81.60
2019-01-17T05:02:48.897Z,81.79
2019-01-17T05:05:18.490Z,81.64
2019-01-17T05:07:47.621Z,81.57
2019-01-17T05:10:20.501Z,81.62
2019-01-17T05:12:49.660Z,81.66
2019-01-17T05:15:18.825Z,81.61
2019-01-17T05:17:47.940Z,81.55
2019-01-17T05:20:17.649Z,81.53
2019-01-17T05:22:46.980Z,81.43
2019-01-17T05:25:16.125Z,81.43
2019-01-17T05:27:45.331Z,81.56
2019-01-17T05:30:21.957Z,81.62
2019-01-17T05:32:51.080Z,81.67
2019-01-17T05:35:20.223Z,81.75
2019-01-17T05:37:49.472Z,81.65
2019-01-17T05:40:20.129Z,81.67
2019-01-17T05:42:49.278Z,81.58
2019-01-17T05:45:18.811Z,81.59
2019-01-17T05:47:47.990Z,81.77
2019-01-17T05:50:23.253Z,81.89
2019-01-17T05:52:52.373Z,82.15
2019-01-17T05:55:21.500Z,82.40
2019-01-17T05:57:50.697Z,82.37
2019-01-17T06:00:22.804Z,82.36
2019-01-17T06:02:52.244Z,82.28
2019-01-17T06:05:21.421Z,82.23
2019-01-17T06:07:50.586Z,82.26
2019-01-17T06:10:22.656Z,82.44
2019-01-17T06:12:53.068Z,82.43
2019-01-17T06:15:23.478Z,82.51
2019-01-17T06:17:52.637Z,82.54
2019-01-17T06:20:21.935Z,82.43
2019-01-17T06:22:51.070Z,82.37
2019-01-17T06:25:27.820Z,82.46
2019-01-17T06:27:51.488Z,82.64
2019-01-17T06:30:22.636Z,82.65
2019-01-17T06:32:51.756Z,82.65
2019-01-17T06:35:20.909Z,82.69
2019-01-17T06:37:50.071Z,82.63
2019-01-17T06:40:28.007Z,82.55
2019-01-17T06:42:57.182Z,82.43
2019-01-17T06:45:26.397Z,82.25
2019-01-17T06:47:55.518Z,81.96
2019-01-17T06:50:24.702Z,81.55
2019-01-17T06:52:53.830Z,81.36
2019-01-17T06:55:22.973Z,81.29
2019-01-17T06:57:52.133Z,81.37
2019-01-17T07:00:21.496Z,81.24
2019-01-17T07:02:50.627Z,80.94
2019-01-17T07:05:20.281Z,81.02
2019-01-17T07:07:49.401Z,81.22
2019-01-17T07:10:18.781Z,80.88
2019-01-17T07:12:47.918Z,80.62
2019-01-17T07:15:17.045Z,80.64
2019-01-17T07:17:46.212Z,80.76
2019-01-17T07:20:16.103Z,80.79
2019-01-17T07:22:45.254Z,80.75
2019-01-17T07:25:14.419Z,80.72
2019-01-17T07:27:43.570Z,80.65
2019-01-17T07:30:19.514Z,80.43
2019-01-17T07:32:48.865Z,80.42
2019-01-17T07:35:18.473Z,80.40
2019-01-17T07:37:47.835Z,80.39
2019-01-17T07:40:20.036Z,80.06
2019-01-17T07:42:49.272Z,80.14
2019-01-17T07:45:24.132Z,80.27
2019-01-17T07:47:53.290Z,80.38
2019-01-17T07:50:22.448Z,80.51
2019-01-17T07:52:51.686Z,80.44
2019-01-17T07:55:20.857Z,80.48
2019-01-17T07:57:49.990Z,80.44
2019-01-17T08:00:21.892Z,80.38
2019-01-17T08:02:51.204Z,80.32
2019-01-17T08:05:20.651Z,80.38
2019-01-17T08:07:50.039Z,80.36
2019-01-17T08:10:26.520Z,80.29
2019-01-17T08:12:55.779Z,80.36
2019-01-17T08:15:24.959Z,80.12
2019-01-17T08:17:54.092Z,79.99
2019-01-17T08:20:24.397Z,79.87
2019-01-17T08:22:53.728Z,79.64
2019-01-17T08:25:22.895Z,79.52
2019-01-17T08:27:52.027Z,79.50
2019-01-17T08:30:24.197Z,79.30
2019-01-17T08:32:53.329Z,79.34
2019-01-17T08:35:22.481Z,79.16
2019-01-17T08:37:51.734Z,79.38
2019-01-17T08:40:26.887Z,79.93
2019-01-17T08:42:56.124Z,80.17
2019-01-17T08:45:25.319Z,81.02
2019-01-17T08:47:54.593Z,81.61
2019-01-17T08:50:23.953Z,82.49
2019-01-17T08:52:53.120Z,82.73
2019-01-17T08:55:22.284Z,82.94
2019-01-17T08:57:51.491Z,82.97
2019-01-17T09:00:28.789Z,82.42
2019-01-17T09:02:58.035Z,81.75
2019-01-17T09:05:27.184Z,81.23
2019-01-17T09:07:56.428Z,81.52
2019-01-17T09:10:28.036Z,82.33
2019-01-17T09:12:57.369Z,82.61
2019-01-17T09:15:29.420Z,82.46
2019-01-17T09:17:58.656Z,82.05
2019-01-17T09:20:27.917Z,81.66
2019-01-17T09:22:57.119Z,81.33
2019-01-17T09:25:26.370Z,81.32
2019-01-17T09:27:55.514Z,80.77
2019-01-17T09:30:24.916Z,80.26
2019-01-17T09:32:54.040Z,80.38
2019-01-17T09:35:23.231Z,80.43
2019-01-17T09:37:52.334Z,80.63
2019-01-17T09:40:22.281Z,80.71
2019-01-17T09:42:51.669Z,80.85
2019-01-17T09:45:21.130Z,81.00
2019-01-17T09:47:50.314Z,81.25
2019-01-17T09:50:21.735Z,81.38
2019-01-17T09:52:51.087Z,81.57
2019-01-17T09:55:20.366Z,81.60
2019-01-17T09:57:49.806Z,81.56
2019-01-17T10:00:27.171Z,81.56
2019-01-17T10:02:56.346Z,81.50
2019-01-17T10:05:25.484Z,81.31
2019-01-17T10:07:54.967Z,81.58
2019-01-17T10:10:24.527Z,81.29
2019-01-17T10:12:53.683Z,81.79
2019-01-17T10:15:49.671Z,81.92
2019-01-17T10:19:12.351Z,82.10
2019-01-17T10:22:29.870Z,82.05
2019-01-17T10:25:40.200Z,82.53
2019-01-17T10:29:11.750Z,81.97
2019-01-17T10:31:55.361Z,81.96
2019-01-17T10:34:34.241Z,81.99
2019-01-17T10:37:24.538Z,81.89
2019-01-17T10:40:28.881Z,81.70
2019-01-17T10:43:38.646Z,81.68
2019-01-17T10:46:51.244Z,81.48
2019-01-17T10:49:52.132Z,81.55
2019-01-17T10:52:53.199Z,81.90
2019-01-17T10:56:02.554Z,81.38
2019-01-17T10:58:41.431Z,81.32
2019-01-17T11:01:37.899Z,81.25
2019-01-17T11:04:51.221Z,81.11
2019-01-17T11:07:44.711Z,81.15
2019-01-17T11:10:48.988Z,81.06
2019-01-17T11:13:58.969Z,80.77
2019-01-17T11:17:30.175Z,80.50
2019-01-17T11:20:29.078Z,80.83
2019-01-17T11:23:41.763Z,80.73
2019-01-17T11:26:56.048Z,80.92
2019-01-17T11:29:55.813Z,80.55
2019-01-17T11:33:06.454Z,80.93
2019-01-17T11:36:03.309Z,81.28
2019-01-17T11:39:14.989Z,80.85
2019-01-17T11:42:09.213Z,81.53
2019-01-17T11:45:01.789Z,81.42
2019-01-17T11:48:07.852Z,81.84
2019-01-17T11:51:12.194Z,82.08
2019-01-17T11:54:43.661Z,82.25
2019-01-17T11:57:48.526Z,82.57
2019-01-17T12:00:41.820Z,82.51
2019-01-17T12:03:35.026Z,83.04
2019-01-17T12:06:04.225Z,83.08
2019-01-17T12:08:33.383Z,83.03
2019-01-17T12:11:02.518Z,83.00
2019-01-17T12:13:31.662Z,82.90
2019-01-17T12:16:00.783Z,82.78
2019-01-17T12:18:29.959Z,82.86
2019-01-17T12:20:59.150Z,82.63
2019-01-17T12:23:28.288Z,81.98
2019-01-17T12:25:57.714Z,81.24
2019-01-17T12:28:26.877Z,80.43
2019-01-17T12:30:56.023Z,80.03
2019-01-17T12:33:25.294Z,79.80
2019-01-17T12:35:54.417Z,79.73
2019-01-17T12:38:23.778Z,79.08
2019-01-17T12:40:52.942Z,79.40
2019-01-17T12:43:22.106Z,80.03
2019-01-17T12:45:51.266Z,80.39
2019-01-17T12:48:20.481Z,79.84
2019-01-17T12:50:49.680Z,79.91
2019-01-17T12:53:18.898Z,80.19
2019-01-17T12:55:48.065Z,80.45
2019-01-17T12:58:17.190Z,80.98
2019-01-17T13:00:46.346Z,80.49
2019-01-17T13:03:15.681Z,80.53
2019-01-17T13:05:44.932Z,79.96
2019-01-17T13:08:14.166Z,79.59
2019-01-17T13:10:43.463Z,79.86
2019-01-17T13:13:12.628Z,79.60
2019-01-17T13:15:42.140Z,79.08
2019-01-17T13:18:11.278Z,79.44
2019-01-17T13:20:41.641Z,79.76
2019-01-17T13:23:10.793Z,79.74
2019-01-17T13:25:40.029Z,79.86
2019-01-17T13:28:09.147Z,79.93
2019-01-17T13:30:38.401Z,79.86
2019-01-17T13:33:07.562Z,79.50
2019-01-17T13:35:37.070Z,79.65
2019-01-17T13:38:06.342Z,79.25
2019-01-17T13:40:35.684Z,79.10
2019-01-17T13:43:05.174Z,78.91
2019-01-17T13:45:34.421Z,78.12
2019-01-17T13:48:03.661Z,77.00
2019-01-17T13:50:32.964Z,76.05
2019-01-17T13:53:02.676Z,74.06
2019-01-17T13:55:31.929Z,72.38
2019-01-17T13:58:02.195Z,73.24
2019-01-17T14:00:31.418Z,76.42
2019-01-17T14:03:00.587Z,79.73
2019-01-17T14:05:29.747Z,81.46
2019-01-17T14:07:58.870Z,81.56
2019-01-17T14:10:28.046Z,81.77
2019-01-17T14:12:57.211Z,82.22
2019-01-17T14:15:28.354Z,82.65
2019-01-17T14:17:57.494Z,82.49
2019-01-17T14:20:26.646Z,82.52
2019-01-17T14:22:55.760Z,82.45
2019-01-17T14:25:24.919Z,82.43
2019-01-17T14:27:54.079Z,82.79
2019-01-17T14:30:29.006Z,82.29
2019-01-17T14:32:58.392Z,82.47
2019-01-17T14:35:27.519Z,82.16
2019-01-17T14:37:56.651Z,82.59
2019-01-17T14:40:26.214Z,82.30
2019-01-17T14:42:55.392Z,82.13
2019-01-17T14:45:25.049Z,81.90
2019-01-17T14:47:54.275Z,82.20
2019-01-17T14:50:25.990Z,81.67
2019-01-17T14:52:55.324Z,81.53
2019-01-17T14:55:24.667Z,80.82
2019-01-17T14:57:53.832Z,81.13
2019-01-17T15:00:26.712Z,81.07
2019-01-17T15:02:55.877Z,81.00
2019-01-17T15:05:25.318Z,80.69
2019-01-17T15:07:54.548Z,80.84
2019-01-17T15:10:35.632Z,80.80
2019-01-17T15:13:05.031Z,81.05
2019-01-17T15:15:34.216Z,81.13
2019-01-17T15:18:04.026Z,81.00
2019-01-17T15:20:33.226Z,81.38
2019-01-17T15:23:04.083Z,81.55
2019-01-17T15:25:33.338Z,81.60
2019-01-17T15:28:02.470Z,81.51
2019-01-17T15:30:32.602Z,81.69
2019-01-17T15:33:03.315Z,81.81
2019-01-17T15:35:32.560Z,81.69
2019-01-17T15:38:02.327Z,81.90
2019-01-17T15:40:32.278Z,81.85
2019-01-17T15:43:02.005Z,82.15
2019-01-17T15:45:31.277Z,82.53
2019-01-17T15:48:00.510Z,82.73
2019-01-17T15:50:29.692Z,82.70
2019-01-17T15:52:58.966Z,82.41
2019-01-17T15:55:28.166Z,82.78
2019-01-17T15:57:57.519Z,82.94
2019-01-17T16:00:29.006Z,83.32
2019-01-17T16:02:58.234Z,83.11
2019-01-17T16:05:28.336Z,83.27
2019-01-17T16:07:57.481Z,83.23
2019-01-17T16:10:26.677Z,83.24
2019-01-17T16:12:56.728Z,83.22
2019-01-17T16:15:27.525Z,83.50
2019-01-17T16:17:56.690Z,83.42
2019-01-17T16:20:25.825Z,83.15
2019-01-17T16:22:55.073Z,82.76
2019-01-17T16:25:24.270Z,82.41
2019-01-17T16:27:53.459Z,82.24
2019-01-17T16:30:25.646Z,81.83
2019-01-17T16:32:55.842Z,81.15
2019-01-17T16:35:25.201Z,81.05
2019-01-17T16:37:54.446Z,81.13
2019-01-17T16:40:23.923Z,80.83
2019-01-17T16:42:53.101Z,80.65
2019-01-17T16:45:23.065Z,80.51
2019-01-17T16:47:52.188Z,80.21
2019-01-17T16:50:23.778Z,80.32
2019-01-17T16:52:52.957Z,80.83
2019-01-17T16:55:22.091Z,80.75
2019-01-17T16:57:51.293Z,81.10
2019-01-17T17:00:29.695Z,80.82
2019-01-17T17:02:58.820Z,80.73
2019-01-17T17:05:28.040Z,80.52
2019-01-17T17:07:57.232Z,81.05
2019-01-17T17:10:26.449Z,81.13
2019-01-17T17:12:55.612Z,81.25
2019-01-17T17:15:24.778Z,81.27
2019-01-17T17:17:53.952Z,81.39
2019-01-17T17:20:23.492Z,81.34
2019-01-17T17:22:52.649Z,81.04
2019-01-17T17:25:21.880Z,81.12
2019-01-17T17:27:55.529Z,81.12
2019-01-17T17:30:26.393Z,81.00
2019-01-17T17:32:55.504Z,81.25
2019-01-17T17:35:24.677Z,81.15
2019-01-17T17:37:53.867Z,80.99
2019-01-17T17:40:28.222Z,81.09
2019-01-17T17:42:57.666Z,81.37
2019-01-17T17:45:28.398Z,81.46
2019-01-17T17:47:59.458Z,81.46
2019-01-17T17:50:31.087Z,81.36
2019-01-17T17:53:00.365Z,81.47
2019-01-17T17:55:29.615Z,81.37
2019-01-17T17:58:02.243Z,80.99
2019-01-17T18:00:55.032Z,80.75
2019-01-17T18:03:24.352Z,80.71
2019-01-17T18:05:53.487Z,80.97
2019-01-17T18:08:22.651Z,81.11
2019-01-17T18:10:51.966Z,81.22
2019-01-17T18:13:21.160Z,80.90
2019-01-17T18:15:50.516Z,80.81
2019-01-17T18:18:19.891Z,81.01
2019-01-17T18:20:49.186Z,81.18
2019-01-17T18:23:18.382Z,81.30
2019-01-17T18:25:47.953Z,81.15
2019-01-17T18:28:17.364Z,81.24
2019-01-17T18:30:46.576Z,81.64
2019-01-17T18:33:16.052Z,81.77
2019-01-17T18:35:45.141Z,81.83
2019-01-17T18:38:14.415Z,82.21
2019-01-17T18:40:43.556Z,82.36
2019-01-17T18:43:12.933Z,82.64
2019-01-17T18:45:42.585Z,82.64
2019-01-17T18:48:12.023Z,82.53
2019-01-17T18:50:41.232Z,82.75
2019-01-17T18:53:10.413Z,82.95
2019-01-17T18:55:39.617Z,83.13
2019-01-17T18:58:15.364Z,83.01
2019-01-17T19:00:42.470Z,82.84
2019-01-17T19:03:11.876Z,82.44
2019-01-17T19:05:42.663Z,82.11
2019-01-17T19:08:11.892Z,81.71
2019-01-17T19:10:41.692Z,81.66
2019-01-17T19:13:10.956Z,81.65
2019-01-17T19:15:40.181Z,81.65
2019-01-17T19:18:09.454Z,81.20
2019-01-17T19:20:39.094Z,81.09
2019-01-17T19:23:08.764Z,80.87
2019-01-17T19:25:38.650Z,80.82
2019-01-17T19:28:10.162Z,81.02
2019-01-17T19:30:39.477Z,80.98
2019-01-17T19:33:08.922Z,81.07
2019-01-17T19:35:38.113Z,80.86
2019-01-17T19:38:07.313Z,80.90
2019-01-17T19:40:37.310Z,80.94
2019-01-17T19:43:06.963Z,80.97
2019-01-17T19:45:37.077Z,80.90
2019-01-17T19:48:06.303Z,80.63
2019-01-17T19:50:38.082Z,80.42
2019-01-17T19:53:08.617Z,80.35
2019-01-17T19:55:39.059Z,80.16
2019-01-17T19:58:09.622Z,80.21
2019-01-17T20:00:41.671Z,79.83
2019-01-17T20:03:11.043Z,80.13
2019-01-17T20:05:40.511Z,80.14
2019-01-17T20:08:09.892Z,80.30
2019-01-17T20:10:39.168Z,81.44
2019-01-17T20:13:08.606Z,82.65
2019-01-17T20:15:38.048Z,83.68
2019-01-17T20:18:07.576Z,84.51
2019-01-17T20:20:37.386Z,84.76
2019-01-17T20:23:07.144Z,85.01
2019-01-17T20:25:38.156Z,85.03
2019-01-17T20:28:07.382Z,84.89
2019-01-17T20:30:36.964Z,84.93
2019-01-17T20:33:07.931Z,84.98
2019-01-17T20:35:37.189Z,85.06
2019-01-17T20:38:08.175Z,85.11
2019-01-17T20:40:39.775Z,85.06
2019-01-17T20:43:09.061Z,85.22
2019-01-17T20:45:38.808Z,85.30
2019-01-17T20:48:07.999Z,85.46
2019-01-17T20:50:37.319Z,85.58
2019-01-17T20:53:07.052Z,85.68
2019-01-17T20:55:36.379Z,85.69
2019-01-17T20:58:05.826Z,85.80
2019-01-17T21:00:59.310Z,85.67
